sensor_id;sensor_type;location;lat;lon;timestamp;P1;durP1;ratioP1;P2;durP2;ratioP2
48891;SDS011;50130;52.150;5.236;2022-12-05T00:01:29;65.1;;;42.9;;
48891;SDS011;50130;52.150;5.236;2022-12-05T00:03:07;61.4;;;42.0;;
48891;SDS011;50130;52.150;5.236;2022-12-05T00:04:43;59.7;;;40.9;;
48891;SDS011;50130;52.150;5.236;2022-12-05T00:07:58;59.3;;;41.5;;
48891;SDS011;50130;52.150;5.236;2022-12-05T00:09:34;61.7;;;41.7;;
48891;SDS011;50130;52.150;5.236;2022-12-05T00:11:10;69.3;;;44.2;;
48891;SDS011;50130;52.150;5.236;2022-12-05T00:14:24;63.7;;;42.9;;
48891;SDS011;50130;52.150;5.236;2022-12-05T00:16:01;64.8;;;42.3;;
48891;SDS011;50130;52.150;5.236;2022-12-05T00:17:41;65.3;;;42.4;;
48891;SDS011;50130;52.150;5.236;2022-12-05T00:20:53;59.2;;;40.6;;
48891;SDS011;50130;52.150;5.236;2022-12-05T00:22:29;63.2;;;42.3;;
48891;SDS011;50130;52.150;5.236;2022-12-05T00:24:06;61.0;;;41.3;;
48891;SDS011;50130;52.150;5.236;2022-12-05T00:25:47;56.6;;;39.31;;
48891;SDS011;50130;52.150;5.236;2022-12-05T00:28:59;60.9;;;40.6;;
48891;SDS011;50130;52.150;5.236;2022-12-05T00:30:38;55.6;;;38.6;;
48891;SDS011;50130;52.150;5.236;2022-12-05T00:32:14;57.9;;;39.31;;
48891;SDS011;50130;52.150;5.236;2022-12-05T00:35:29;55.6;;;38.5;;
48891;SDS011;50130;52.150;5.236;2022-12-05T00:37:05;57.3;;;39.31;;
48891;SDS011;50130;52.150;5.236;2022-12-05T00:38:41;58.9;;;38.21;;
48891;SDS011;50130;52.150;5.236;2022-12-05T00:40:18;60.0;;;39.6;;
48891;SDS011;50130;52.150;5.236;2022-12-05T00:43:31;59.3;;;39.71;;
48891;SDS011;50130;52.150;5.236;2022-12-05T00:45:08;58.5;;;40.5;;
48891;SDS011;50130;52.150;5.236;2022-12-05T00:46:45;57.3;;;38.71;;
48891;SDS011;50130;52.150;5.236;2022-12-05T00:49:57;59.5;;;39.5;;
48891;SDS011;50130;52.150;5.236;2022-12-05T00:51:34;60.4;;;41.3;;
48891;SDS011;50130;52.150;5.236;2022-12-05T00:53:13;59.8;;;39.6;;
48891;SDS011;50130;52.150;5.236;2022-12-05T00:56:26;56.7;;;38.21;;
48891;SDS011;50130;52.150;5.236;2022-12-05T00:58:03;56.1;;;38.71;;
48891;SDS011;50130;52.150;5.236;2022-12-05T00:59:39;60.2;;;40.21;;
48891;SDS011;50130;52.150;5.236;2022-12-05T01:01:16;63.4;;;41.0;;
48891;SDS011;50130;52.150;5.236;2022-12-05T01:04:33;61.4;;;40.1;;
48891;SDS011;50130;52.150;5.236;2022-12-05T01:06:09;59.5;;;39.81;;
48891;SDS011;50130;52.150;5.236;2022-12-05T01:07:48;64.8;;;40.81;;
48891;SDS011;50130;52.150;5.236;2022-12-05T01:11:02;57.6;;;38.9;;
48891;SDS011;50130;52.150;5.236;2022-12-05T01:12:40;61.6;;;39.5;;
48891;SDS011;50130;52.150;5.236;2022-12-05T01:14:17;57.0;;;39.0;;
48891;SDS011;50130;52.150;5.236;2022-12-05T01:15:55;58.0;;;39.5;;
48891;SDS011;50130;52.150;5.236;2022-12-05T01:19:11;64.1;;;41.6;;
48891;SDS011;50130;52.150;5.236;2022-12-05T01:20:52;65.5;;;42.5;;
48891;SDS011;50130;52.150;5.236;2022-12-05T01:22:29;67.5;;;42.3;;
48891;SDS011;50130;52.150;5.236;2022-12-05T01:25:43;64.7;;;41.5;;
48891;SDS011;50130;52.150;5.236;2022-12-05T01:27:24;63.7;;;41.2;;
48891;SDS011;50130;52.150;5.236;2022-12-05T01:29:01;70.3;;;44.5;;
48891;SDS011;50130;52.150;5.236;2022-12-05T01:30:40;74.61;;;45.6;;
48891;SDS011;50130;52.150;5.236;2022-12-05T01:33:55;71.11;;;45.8;;
48891;SDS011;50130;52.150;5.236;2022-12-05T01:35:34;70.3;;;44.8;;
48891;SDS011;50130;52.150;5.236;2022-12-05T01:37:13;63.5;;;42.9;;
48891;SDS011;50130;52.150;5.236;2022-12-05T01:40:27;75.7;;;46.1;;
48891;SDS011;50130;52.150;5.236;2022-12-05T01:42:04;71.91;;;44.4;;
48891;SDS011;50130;52.150;5.236;2022-12-05T01:43:58;73.41;;;44.1;;
48891;SDS011;50130;52.150;5.236;2022-12-05T01:45:37;78.41;;;47.0;;
48891;SDS011;50130;52.150;5.236;2022-12-05T01:47:17;73.5;;;46.6;;
48891;SDS011;50130;52.150;5.236;2022-12-05T01:50:36;69.2;;;44.8;;
48891;SDS011;50130;52.150;5.236;2022-12-05T01:52:14;82.0;;;47.8;;
48891;SDS011;50130;52.150;5.236;2022-12-05T01:53:54;79.8;;;47.3;;
48891;SDS011;50130;52.150;5.236;2022-12-05T01:57:11;74.7;;;46.0;;
48891;SDS011;50130;52.150;5.236;2022-12-05T01:58:49;80.0;;;46.1;;
48891;SDS011;50130;52.150;5.236;2022-12-05T02:00:28;80.91;;;48.5;;
48891;SDS011;50130;52.150;5.236;2022-12-05T02:02:04;78.0;;;47.7;;
48891;SDS011;50130;52.150;5.236;2022-12-05T02:05:22;69.2;;;44.2;;
48891;SDS011;50130;52.150;5.236;2022-12-05T02:07:03;80.91;;;47.6;;
48891;SDS011;50130;52.150;5.236;2022-12-05T02:08:39;68.41;;;42.7;;
48891;SDS011;50130;52.150;5.236;2022-12-05T02:10:16;71.61;;;45.4;;
48891;SDS011;50130;52.150;5.236;2022-12-05T02:13:51;79.91;;;47.7;;
48891;SDS011;50130;52.150;5.236;2022-12-05T02:15:39;75.41;;;46.4;;
48891;SDS011;50130;52.150;5.236;2022-12-05T02:17:22;79.91;;;46.5;;
48891;SDS011;50130;52.150;5.236;2022-12-05T02:19:19;79.91;;;48.2;;
48891;SDS011;50130;52.150;5.236;2022-12-05T02:21:48;85.4;;;50.9;;
48891;SDS011;50130;52.150;5.236;2022-12-05T02:23:46;65.1;;;42.1;;
48891;SDS011;50130;52.150;5.236;2022-12-05T02:25:53;73.8;;;46.2;;
48891;SDS011;50130;52.150;5.236;2022-12-05T02:29:48;86.6;;;48.6;;
48891;SDS011;50130;52.150;5.236;2022-12-05T02:31:40;71.3;;;45.6;;
48891;SDS011;50130;52.150;5.236;2022-12-05T02:33:28;71.0;;;44.2;;
48891;SDS011;50130;52.150;5.236;2022-12-05T02:37:00;80.2;;;46.9;;
48891;SDS011;50130;52.150;5.236;2022-12-05T02:38:45;80.7;;;48.7;;
48891;SDS011;50130;52.150;5.236;2022-12-05T02:40:33;85.3;;;48.9;;
48891;SDS011;50130;52.150;5.236;2022-12-05T02:42:20;80.3;;;48.3;;
48891;SDS011;50130;52.150;5.236;2022-12-05T02:44:03;80.41;;;48.3;;
48891;SDS011;50130;52.150;5.236;2022-12-05T02:47:28;83.2;;;48.5;;
48891;SDS011;50130;52.150;5.236;2022-12-05T02:49:08;81.2;;;47.4;;
48891;SDS011;50130;52.150;5.236;2022-12-05T02:50:49;77.2;;;45.5;;
48891;SDS011;50130;52.150;5.236;2022-12-05T02:52:28;72.7;;;44.0;;
48891;SDS011;50130;52.150;5.236;2022-12-05T02:55:50;82.2;;;48.5;;
48891;SDS011;50130;52.150;5.236;2022-12-05T02:57:27;77.91;;;46.4;;
48891;SDS011;50130;52.150;5.236;2022-12-05T02:59:04;92.2;;;49.2;;
48891;SDS011;50130;52.150;5.236;2022-12-05T03:00:42;75.91;;;46.5;;
48891;SDS011;50130;52.150;5.236;2022-12-05T03:04:02;62.4;;;41.1;;
48891;SDS011;50130;52.150;5.236;2022-12-05T03:05:42;74.8;;;44.8;;
48891;SDS011;50130;52.150;5.236;2022-12-05T03:07:26;75.11;;;44.9;;
48891;SDS011;50130;52.150;5.236;2022-12-05T03:09:07;71.7;;;44.5;;
48891;SDS011;50130;52.150;5.236;2022-12-05T03:12:27;80.7;;;45.8;;
48891;SDS011;50130;52.150;5.236;2022-12-05T03:14:10;82.2;;;47.0;;
48891;SDS011;50130;52.150;5.236;2022-12-05T03:15:52;79.2;;;47.4;;
48891;SDS011;50130;52.150;5.236;2022-12-05T03:17:35;72.91;;;45.6;;
48891;SDS011;50130;52.150;5.236;2022-12-05T03:19:20;72.61;;;43.4;;
48891;SDS011;50130;52.150;5.236;2022-12-05T03:22:47;79.91;;;46.5;;
48891;SDS011;50130;52.150;5.236;2022-12-05T03:24:29;75.41;;;43.6;;
48891;SDS011;50130;52.150;5.236;2022-12-05T03:26:15;67.8;;;42.3;;
48891;SDS011;50130;52.150;5.236;2022-12-05T03:28:07;71.41;;;43.6;;
48891;SDS011;50130;52.150;5.236;2022-12-05T03:29:54;71.3;;;42.8;;
48891;SDS011;50130;52.150;5.236;2022-12-05T03:33:21;72.3;;;43.2;;
48891;SDS011;50130;52.150;5.236;2022-12-05T03:35:03;67.91;;;41.9;;
48891;SDS011;50130;52.150;5.236;2022-12-05T03:36:45;60.8;;;38.9;;
48891;SDS011;50130;52.150;5.236;2022-12-05T03:38:29;66.5;;;41.4;;
48891;SDS011;50130;52.150;5.236;2022-12-05T03:41:58;69.61;;;42.2;;
48891;SDS011;50130;52.150;5.236;2022-12-05T03:43:44;70.11;;;41.8;;
48891;SDS011;50130;52.150;5.236;2022-12-05T03:45:33;63.5;;;40.9;;
48891;SDS011;50130;52.150;5.236;2022-12-05T03:47:15;64.0;;;40.6;;
48891;SDS011;50130;52.150;5.236;2022-12-05T03:49:00;70.11;;;42.6;;
48891;SDS011;50130;52.150;5.236;2022-12-05T03:50:44;70.91;;;42.4;;
48891;SDS011;50130;52.150;5.236;2022-12-05T03:54:08;62.1;;;39.5;;
48891;SDS011;50130;52.150;5.236;2022-12-05T03:55:53;69.11;;;41.9;;
48891;SDS011;50130;52.150;5.236;2022-12-05T03:57:36;60.8;;;39.0;;
48891;SDS011;50130;52.150;5.236;2022-12-05T03:59:19;65.1;;;40.81;;
48891;SDS011;50130;52.150;5.236;2022-12-05T04:01:07;68.2;;;40.81;;
48891;SDS011;50130;52.150;5.236;2022-12-05T04:04:31;57.3;;;37.81;;
48891;SDS011;50130;52.150;5.236;2022-12-05T04:06:13;61.5;;;39.21;;
48891;SDS011;50130;52.150;5.236;2022-12-05T04:07:56;65.41;;;40.0;;
48891;SDS011;50130;52.150;5.236;2022-12-05T04:09:40;65.0;;;40.81;;
48891;SDS011;50130;52.150;5.236;2022-12-05T04:13:17;56.9;;;38.0;;
48891;SDS011;50130;52.150;5.236;2022-12-05T04:15:02;65.1;;;40.1;;
48891;SDS011;50130;52.150;5.236;2022-12-05T04:17:19;55.2;;;36.1;;
48891;SDS011;50130;52.150;5.236;2022-12-05T04:19:02;64.2;;;40.5;;
48891;SDS011;50130;52.150;5.236;2022-12-05T04:21:52;58.1;;;37.9;;
48891;SDS011;50130;52.150;5.236;2022-12-05T04:23:31;66.5;;;41.0;;
48891;SDS011;50130;52.150;5.236;2022-12-05T04:27:44;63.8;;;39.81;;
48891;SDS011;50130;52.150;5.236;2022-12-05T04:29:41;59.9;;;38.4;;
48891;SDS011;50130;52.150;5.236;2022-12-05T04:31:25;65.6;;;39.9;;
48891;SDS011;50130;52.150;5.236;2022-12-05T04:33:10;62.4;;;39.71;;
48891;SDS011;50130;52.150;5.236;2022-12-05T04:34:54;58.9;;;37.81;;
48891;SDS011;50130;52.150;5.236;2022-12-05T04:38:22;63.6;;;39.31;;
48891;SDS011;50130;52.150;5.236;2022-12-05T04:40:03;62.1;;;39.5;;
48891;SDS011;50130;52.150;5.236;2022-12-05T04:41:47;60.8;;;38.4;;
48891;SDS011;50130;52.150;5.236;2022-12-05T04:43:29;62.1;;;40.0;;
48891;SDS011;50130;52.150;5.236;2022-12-05T04:45:16;68.3;;;40.21;;
48891;SDS011;50130;52.150;5.236;2022-12-05T04:48:38;70.61;;;41.1;;
48891;SDS011;50130;52.150;5.236;2022-12-05T04:50:17;69.7;;;41.9;;
48891;SDS011;50130;52.150;5.236;2022-12-05T04:51:58;72.0;;;43.7;;
48891;SDS011;50130;52.150;5.236;2022-12-05T04:53:38;59.2;;;37.81;;
48891;SDS011;50130;52.150;5.236;2022-12-05T04:57:00;70.8;;;42.4;;
48891;SDS011;50130;52.150;5.236;2022-12-05T04:58:45;71.7;;;41.9;;
48891;SDS011;50130;52.150;5.236;2022-12-05T05:00:21;68.5;;;41.1;;
48891;SDS011;50130;52.150;5.236;2022-12-05T05:01:59;64.8;;;40.6;;
48891;SDS011;50130;52.150;5.236;2022-12-05T05:05:23;74.5;;;44.7;;
48891;SDS011;50130;52.150;5.236;2022-12-05T05:07:04;78.7;;;45.8;;
48891;SDS011;50130;52.150;5.236;2022-12-05T05:08:45;78.7;;;45.8;;
48891;SDS011;50130;52.150;5.236;2022-12-05T05:10:25;69.5;;;43.3;;
48891;SDS011;50130;52.150;5.236;2022-12-05T05:13:45;76.41;;;46.2;;
48891;SDS011;50130;52.150;5.236;2022-12-05T05:15:23;80.41;;;46.4;;
48891;SDS011;50130;52.150;5.236;2022-12-05T05:16:59;70.2;;;43.0;;
48891;SDS011;50130;52.150;5.236;2022-12-05T05:18:35;78.3;;;45.8;;
48891;SDS011;50130;52.150;5.236;2022-12-05T05:22:03;76.41;;;44.8;;
48891;SDS011;50130;52.150;5.236;2022-12-05T05:23:39;82.8;;;47.5;;
48891;SDS011;50130;52.150;5.236;2022-12-05T05:25:16;69.41;;;43.8;;
48891;SDS011;50130;52.150;5.236;2022-12-05T05:26:53;69.11;;;43.8;;
48891;SDS011;50130;52.150;5.236;2022-12-05T05:30:06;78.41;;;45.5;;
48891;SDS011;50130;52.150;5.236;2022-12-05T05:31:43;79.7;;;47.1;;
48891;SDS011;50130;52.150;5.236;2022-12-05T05:33:20;87.0;;;49.7;;
48891;SDS011;50130;52.150;5.236;2022-12-05T05:36:32;78.2;;;47.4;;
48891;SDS011;50130;52.150;5.236;2022-12-05T05:38:09;88.4;;;50.6;;
48891;SDS011;50130;52.150;5.236;2022-12-05T05:39:45;81.5;;;47.6;;
48891;SDS011;50130;52.150;5.236;2022-12-05T05:43:00;83.7;;;49.2;;
48891;SDS011;50130;52.150;5.236;2022-12-05T05:44:36;74.8;;;44.5;;
48891;SDS011;50130;52.150;5.236;2022-12-05T05:46:13;89.1;;;49.9;;
48891;SDS011;50130;52.150;5.236;2022-12-05T05:47:52;86.8;;;48.8;;
48891;SDS011;50130;52.150;5.236;2022-12-05T05:51:05;79.41;;;46.5;;
48891;SDS011;50130;52.150;5.236;2022-12-05T05:52:44;81.41;;;46.6;;
48891;SDS011;50130;52.150;5.236;2022-12-05T05:54:20;79.8;;;46.6;;
48891;SDS011;50130;52.150;5.236;2022-12-05T05:57:37;65.91;;;41.4;;
48891;SDS011;50130;52.150;5.236;2022-12-05T05:59:13;85.0;;;48.6;;
48891;SDS011;50130;52.150;5.236;2022-12-05T06:00:49;96.4;;;50.1;;
48891;SDS011;50130;52.150;5.236;2022-12-05T06:04:06;80.11;;;47.4;;
48891;SDS011;50130;52.150;5.236;2022-12-05T06:05:43;81.91;;;47.2;;
48891;SDS011;50130;52.150;5.236;2022-12-05T06:07:19;73.5;;;43.4;;
48891;SDS011;50130;52.150;5.236;2022-12-05T06:08:55;69.7;;;42.1;;
48891;SDS011;50130;52.150;5.236;2022-12-05T06:12:07;71.91;;;43.7;;
48891;SDS011;50130;52.150;5.236;2022-12-05T06:13:44;74.7;;;44.7;;
48891;SDS011;50130;52.150;5.236;2022-12-05T06:15:20;82.9;;;45.9;;
48891;SDS011;50130;52.150;5.236;2022-12-05T06:18:33;78.5;;;43.7;;
48891;SDS011;50130;52.150;5.236;2022-12-05T06:20:10;63.7;;;39.31;;
48891;SDS011;50130;52.150;5.236;2022-12-05T06:21:47;81.7;;;46.5;;
48891;SDS011;50130;52.150;5.236;2022-12-05T06:23:24;68.8;;;41.0;;
48891;SDS011;50130;52.150;5.236;2022-12-05T06:26:37;70.91;;;43.4;;
48891;SDS011;50130;52.150;5.236;2022-12-05T06:28:14;56.4;;;38.4;;
48891;SDS011;50130;52.150;5.236;2022-12-05T06:29:51;79.3;;;44.5;;
48891;SDS011;50130;52.150;5.236;2022-12-05T06:33:07;72.8;;;41.5;;
48891;SDS011;50130;52.150;5.236;2022-12-05T06:34:44;73.7;;;44.2;;
48891;SDS011;50130;52.150;5.236;2022-12-05T06:36:21;82.5;;;47.1;;
48891;SDS011;50130;52.150;5.236;2022-12-05T06:39:34;58.7;;;38.31;;
48891;SDS011;50130;52.150;5.236;2022-12-05T06:41:18;70.91;;;42.0;;
48891;SDS011;50130;52.150;5.236;2022-12-05T06:42:55;67.1;;;40.1;;
48891;SDS011;50130;52.150;5.236;2022-12-05T06:44:31;77.3;;;45.3;;
48891;SDS011;50130;52.150;5.236;2022-12-05T06:47:47;76.3;;;43.1;;
48891;SDS011;50130;52.150;5.236;2022-12-05T06:49:25;65.8;;;41.4;;
48891;SDS011;50130;52.150;5.236;2022-12-05T06:51:01;60.4;;;38.21;;
48891;SDS011;50130;52.150;5.236;2022-12-05T06:52:38;79.3;;;44.6;;
48891;SDS011;50130;52.150;5.236;2022-12-05T06:55:54;76.5;;;42.8;;
48891;SDS011;50130;52.150;5.236;2022-12-05T06:57:32;63.1;;;38.6;;
48891;SDS011;50130;52.150;5.236;2022-12-05T06:59:08;53.8;;;35.4;;
48891;SDS011;50130;52.150;5.236;2022-12-05T07:03:25;75.3;;;42.0;;
48891;SDS011;50130;52.150;5.236;2022-12-05T07:06:38;65.5;;;39.1;;
48891;SDS011;50130;52.150;5.236;2022-12-05T07:08:17;66.6;;;39.6;;
48891;SDS011;50130;52.150;5.236;2022-12-05T07:09:53;77.8;;;43.2;;
48891;SDS011;50130;52.150;5.236;2022-12-05T07:11:29;54.7;;;35.0;;
48891;SDS011;50130;52.150;5.236;2022-12-05T07:14:43;66.5;;;40.0;;
48891;SDS011;50130;52.150;5.236;2022-12-05T07:16:20;63.5;;;39.1;;
48891;SDS011;50130;52.150;5.236;2022-12-05T07:17:56;65.2;;;37.0;;
48891;SDS011;50130;52.150;5.236;2022-12-05T07:21:10;59.6;;;35.9;;
48891;SDS011;50130;52.150;5.236;2022-12-05T07:22:49;55.2;;;36.0;;
48891;SDS011;50130;52.150;5.236;2022-12-05T07:24:25;65.1;;;38.4;;
48891;SDS011;50130;52.150;5.236;2022-12-05T07:27:40;58.2;;;35.5;;
48891;SDS011;50130;52.150;5.236;2022-12-05T07:29:17;52.1;;;33.4;;
48891;SDS011;50130;52.150;5.236;2022-12-05T07:31:01;52.4;;;34.1;;
48891;SDS011;50130;52.150;5.236;2022-12-05T07:32:41;43.8;;;29.5;;
48891;SDS011;50130;52.150;5.236;2022-12-05T07:35:57;40.9;;;28.6;;
48891;SDS011;50130;52.150;5.236;2022-12-05T07:37:36;52.9;;;33.21;;
48891;SDS011;50130;52.150;5.236;2022-12-05T07:39:11;47.2;;;31.8;;
48891;SDS011;50130;52.150;5.236;2022-12-05T07:40:48;45.7;;;29.8;;
48891;SDS011;50130;52.150;5.236;2022-12-05T07:44:00;42.6;;;29.2;;
48891;SDS011;50130;52.150;5.236;2022-12-05T07:45:36;50.4;;;32.4;;
48891;SDS011;50130;52.150;5.236;2022-12-05T07:47:12;39.6;;;28.0;;
48891;SDS011;50130;52.150;5.236;2022-12-05T07:50:26;44.5;;;30.4;;
48891;SDS011;50130;52.150;5.236;2022-12-05T07:52:02;43.7;;;30.5;;
48891;SDS011;50130;52.150;5.236;2022-12-05T07:53:41;39.1;;;28.2;;
48891;SDS011;50130;52.150;5.236;2022-12-05T07:56:53;34.81;;;26.3;;
48891;SDS011;50130;52.150;5.236;2022-12-05T07:58:30;40.81;;;29.7;;
48891;SDS011;50130;52.150;5.236;2022-12-05T08:00:08;36.5;;;26.8;;
48891;SDS011;50130;52.150;5.236;2022-12-05T08:01:45;38.5;;;29.3;;
48891;SDS011;50130;52.150;5.236;2022-12-05T08:04:57;35.9;;;27.5;;
48891;SDS011;50130;52.150;5.236;2022-12-05T08:06:34;35.81;;;26.8;;
48891;SDS011;50130;52.150;5.236;2022-12-05T08:08:11;37.81;;;27.7;;
48891;SDS011;50130;52.150;5.236;2022-12-05T08:11:25;40.81;;;29.9;;
48891;SDS011;50130;52.150;5.236;2022-12-05T08:13:03;38.81;;;28.4;;
48891;SDS011;50130;52.150;5.236;2022-12-05T08:14:40;35.0;;;26.8;;
48891;SDS011;50130;52.150;5.236;2022-12-05T08:17:55;42.6;;;29.9;;
48891;SDS011;50130;52.150;5.236;2022-12-05T08:19:31;34.0;;;25.7;;
48891;SDS011;50130;52.150;5.236;2022-12-05T08:21:08;38.4;;;28.5;;
48891;SDS011;50130;52.150;5.236;2022-12-05T08:22:46;41.3;;;29.6;;
48891;SDS011;50130;52.150;5.236;2022-12-05T08:26:03;44.0;;;30.2;;
48891;SDS011;50130;52.150;5.236;2022-12-05T08:27:41;38.71;;;28.4;;
48891;SDS011;50130;52.150;5.236;2022-12-05T08:31:01;38.81;;;29.0;;
48891;SDS011;50130;52.150;5.236;2022-12-05T08:32:39;37.4;;;27.1;;
48891;SDS011;50130;52.150;5.236;2022-12-05T08:35:53;34.31;;;26.7;;
48891;SDS011;50130;52.150;5.236;2022-12-05T08:37:30;37.5;;;27.0;;
48891;SDS011;50130;52.150;5.236;2022-12-05T08:40:46;28.3;;;23.1;;
48891;SDS011;50130;52.150;5.236;2022-12-05T08:42:23;28.4;;;23.4;;
48891;SDS011;50130;52.150;5.236;2022-12-05T08:44:00;34.5;;;25.9;;
48891;SDS011;50130;52.150;5.236;2022-12-05T08:45:40;28.0;;;22.4;;
48891;SDS011;50130;52.150;5.236;2022-12-05T08:49:01;32.71;;;25.3;;
48891;SDS011;50130;52.150;5.236;2022-12-05T08:50:38;31.3;;;25.3;;
48891;SDS011;50130;52.150;5.236;2022-12-05T08:52:14;32.9;;;26.0;;
48891;SDS011;50130;52.150;5.236;2022-12-05T08:55:26;26.8;;;21.9;;
48891;SDS011;50130;52.150;5.236;2022-12-05T08:57:02;32.1;;;24.9;;
48891;SDS011;50130;52.150;5.236;2022-12-05T08:58:38;29.1;;;24.2;;
48891;SDS011;50130;52.150;5.236;2022-12-05T09:00:16;22.7;;;19.91;;
48891;SDS011;50130;52.150;5.236;2022-12-05T09:03:30;29.7;;;22.2;;
48891;SDS011;50130;52.150;5.236;2022-12-05T09:05:07;23.3;;;19.8;;
48891;SDS011;50130;52.150;5.236;2022-12-05T09:06:44;23.0;;;19.0;;
48891;SDS011;50130;52.150;5.236;2022-12-05T09:09:58;26.1;;;20.8;;
48891;SDS011;50130;52.150;5.236;2022-12-05T09:11:35;22.5;;;19.11;;
48891;SDS011;50130;52.150;5.236;2022-12-05T09:13:14;24.3;;;20.2;;
48891;SDS011;50130;52.150;5.236;2022-12-05T09:18:06;24.5;;;18.8;;
48891;SDS011;50130;52.150;5.236;2022-12-05T09:19:44;22.0;;;18.2;;
48891;SDS011;50130;52.150;5.236;2022-12-05T09:21:21;16.8;;;15.0;;
48891;SDS011;50130;52.150;5.236;2022-12-05T09:24:35;23.8;;;18.0;;
48891;SDS011;50130;52.150;5.236;2022-12-05T09:26:14;17.11;;;14.8;;
48891;SDS011;50130;52.150;5.236;2022-12-05T09:27:53;15.6;;;13.8;;
48891;SDS011;50130;52.150;5.236;2022-12-05T09:31:07;18.41;;;16.4;;
48891;SDS011;50130;52.150;5.236;2022-12-05T09:32:49;17.7;;;15.4;;
48891;SDS011;50130;52.150;5.236;2022-12-05T09:34:28;19.5;;;16.3;;
48891;SDS011;50130;52.150;5.236;2022-12-05T09:36:05;18.7;;;15.7;;
48891;SDS011;50130;52.150;5.236;2022-12-05T09:40:58;16.11;;;14.4;;
48891;SDS011;50130;52.150;5.236;2022-12-05T09:44:43;17.5;;;15.6;;
48891;SDS011;50130;52.150;5.236;2022-12-05T09:47:31;15.1;;;13.5;;
48891;SDS011;50130;52.150;5.236;2022-12-05T09:49:17;15.0;;;13.4;;
48891;SDS011;50130;52.150;5.236;2022-12-05T09:50:55;18.2;;;16.3;;
48891;SDS011;50130;52.150;5.236;2022-12-05T09:54:18;15.6;;;14.1;;
48891;SDS011;50130;52.150;5.236;2022-12-05T09:55:59;15.6;;;14.1;;
48891;SDS011;50130;52.150;5.236;2022-12-05T09:57:42;19.8;;;17.0;;
48891;SDS011;50130;52.150;5.236;2022-12-05T09:59:23;14.8;;;13.2;;
48891;SDS011;50130;52.150;5.236;2022-12-05T10:02:51;15.6;;;14.0;;
48891;SDS011;50130;52.150;5.236;2022-12-05T10:04:45;16.0;;;14.3;;
48891;SDS011;50130;52.150;5.236;2022-12-05T10:06:31;15.8;;;14.1;;
48891;SDS011;50130;52.150;5.236;2022-12-05T10:08:16;15.4;;;13.8;;
48891;SDS011;50130;52.150;5.236;2022-12-05T10:13:47;15.4;;;13.7;;
48891;SDS011;50130;52.150;5.236;2022-12-05T10:15:37;15.3;;;13.4;;
48891;SDS011;50130;52.150;5.236;2022-12-05T10:19:02;15.8;;;14.1;;
48891;SDS011;50130;52.150;5.236;2022-12-05T10:20:45;14.9;;;13.3;;
48891;SDS011;50130;52.150;5.236;2022-12-05T10:22:27;14.9;;;13.3;;
48891;SDS011;50130;52.150;5.236;2022-12-05T10:24:20;13.0;;;11.7;;
48891;SDS011;50130;52.150;5.236;2022-12-05T10:26:06;11.5;;;10.0;;
48891;SDS011;50130;52.150;5.236;2022-12-05T10:29:27;10.9;;;9.81;;
48891;SDS011;50130;52.150;5.236;2022-12-05T10:31:08;11.2;;;10.0;;
48891;SDS011;50130;52.150;5.236;2022-12-05T10:32:51;11.7;;;10.5;;
48891;SDS011;50130;52.150;5.236;2022-12-05T10:34:32;12.5;;;11.2;;
48891;SDS011;50130;52.150;5.236;2022-12-05T10:37:53;13.4;;;11.3;;
48891;SDS011;50130;52.150;5.236;2022-12-05T10:39:33;13.4;;;11.3;;
48891;SDS011;50130;52.150;5.236;2022-12-05T10:41:11;9.81;;;8.81;;
48891;SDS011;50130;52.150;5.236;2022-12-05T10:42:49;9.71;;;8.4;;
48891;SDS011;50130;52.150;5.236;2022-12-05T10:46:02;8.4;;;7.2;;
48891;SDS011;50130;52.150;5.236;2022-12-05T10:47:40;8.5;;;7.2;;
48891;SDS011;50130;52.150;5.236;2022-12-05T10:49:17;10.1;;;8.31;;
48891;SDS011;50130;52.150;5.236;2022-12-05T10:52:32;8.0;;;6.7;;
48891;SDS011;50130;52.150;5.236;2022-12-05T10:54:12;10.5;;;8.4;;
48891;SDS011;50130;52.150;5.236;2022-12-05T10:55:53;8.2;;;7.3;;
48891;SDS011;50130;52.150;5.236;2022-12-05T10:57:30;9.21;;;7.8;;
48891;SDS011;50130;52.150;5.236;2022-12-05T11:00:48;9.6;;;7.5;;
48891;SDS011;50130;52.150;5.236;2022-12-05T11:02:27;8.81;;;7.9;;
48891;SDS011;50130;52.150;5.236;2022-12-05T11:04:08;8.6;;;7.6;;
48891;SDS011;50130;52.150;5.236;2022-12-05T11:05:56;8.81;;;7.7;;
48891;SDS011;50130;52.150;5.236;2022-12-05T11:09:22;8.5;;;7.6;;
48891;SDS011;50130;52.150;5.236;2022-12-05T11:11:02;7.9;;;6.7;;
48891;SDS011;50130;52.150;5.236;2022-12-05T11:12:41;9.21;;;8.1;;
48891;SDS011;50130;52.150;5.236;2022-12-05T11:14:20;8.2;;;6.9;;
48891;SDS011;50130;52.150;5.236;2022-12-05T11:17:37;12.7;;;9.1;;
48891;SDS011;50130;52.150;5.236;2022-12-05T11:19:17;10.7;;;8.0;;
48891;SDS011;50130;52.150;5.236;2022-12-05T11:21:11;9.71;;;8.1;;
48891;SDS011;50130;52.150;5.236;2022-12-05T11:22:50;9.81;;;8.0;;
48891;SDS011;50130;52.150;5.236;2022-12-05T11:26:15;9.71;;;8.71;;
48891;SDS011;50130;52.150;5.236;2022-12-05T11:29:34;9.5;;;8.31;;
48891;SDS011;50130;52.150;5.236;2022-12-05T11:36:05;10.4;;;9.31;;
48891;SDS011;50130;52.150;5.236;2022-12-05T11:37:50;11.8;;;9.0;;
48891;SDS011;50130;52.150;5.236;2022-12-05T11:39:31;10.3;;;8.9;;
48891;SDS011;50130;52.150;5.236;2022-12-05T11:43:25;12.3;;;10.0;;
48891;SDS011;50130;52.150;5.236;2022-12-05T11:46:08;13.5;;;10.1;;
48891;SDS011;50130;52.150;5.236;2022-12-05T11:48:01;11.6;;;9.81;;
48891;SDS011;50130;52.150;5.236;2022-12-05T11:50:00;10.4;;;9.31;;
48891;SDS011;50130;52.150;5.236;2022-12-05T11:51:50;15.4;;;10.9;;
48891;SDS011;50130;52.150;5.236;2022-12-05T11:56:00;12.3;;;11.0;;
48891;SDS011;50130;52.150;5.236;2022-12-05T12:00:46;15.2;;;11.3;;
48891;SDS011;50130;52.150;5.236;2022-12-05T12:02:39;12.4;;;10.0;;
48891;SDS011;50130;52.150;5.236;2022-12-05T12:04:48;16.4;;;11.6;;
48891;SDS011;50130;52.150;5.236;2022-12-05T12:06:28;12.8;;;11.3;;
48891;SDS011;50130;52.150;5.236;2022-12-05T12:09:57;12.8;;;10.21;;
48891;SDS011;50130;52.150;5.236;2022-12-05T12:11:46;13.9;;;10.8;;
48891;SDS011;50130;52.150;5.236;2022-12-05T12:13:34;13.1;;;10.4;;
48891;SDS011;50130;52.150;5.236;2022-12-05T12:15:30;13.7;;;10.6;;
48891;SDS011;50130;52.150;5.236;2022-12-05T12:17:24;15.9;;;11.5;;
48891;SDS011;50130;52.150;5.236;2022-12-05T12:19:13;14.7;;;10.7;;
48891;SDS011;50130;52.150;5.236;2022-12-05T12:21:36;13.8;;;11.1;;
48891;SDS011;50130;52.150;5.236;2022-12-05T12:23:30;22.5;;;17.2;;
48891;SDS011;50130;52.150;5.236;2022-12-05T12:25:23;28.2;;;18.0;;
48891;SDS011;50130;52.150;5.236;2022-12-05T12:28:57;26.6;;;18.7;;
48891;SDS011;50130;52.150;5.236;2022-12-05T12:30:51;14.5;;;10.5;;
48891;SDS011;50130;52.150;5.236;2022-12-05T12:32:42;15.8;;;11.6;;
48891;SDS011;50130;52.150;5.236;2022-12-05T12:34:38;13.2;;;10.7;;
48891;SDS011;50130;52.150;5.236;2022-12-05T12:36:41;13.7;;;10.3;;
48891;SDS011;50130;52.150;5.236;2022-12-05T12:38:27;13.1;;;10.1;;
48891;SDS011;50130;52.150;5.236;2022-12-05T12:40:21;15.9;;;10.9;;
48891;SDS011;50130;52.150;5.236;2022-12-05T12:42:13;14.9;;;9.81;;
48891;SDS011;50130;52.150;5.236;2022-12-05T12:46:05;18.3;;;11.5;;
48891;SDS011;50130;52.150;5.236;2022-12-05T12:48:18;15.7;;;11.2;;
48891;SDS011;50130;52.150;5.236;2022-12-05T12:50:13;17.0;;;11.2;;
48891;SDS011;50130;52.150;5.236;2022-12-05T12:51:56;16.2;;;11.2;;
48891;SDS011;50130;52.150;5.236;2022-12-05T12:53:40;15.7;;;10.0;;
48891;SDS011;50130;52.150;5.236;2022-12-05T12:55:39;16.61;;;11.2;;
48891;SDS011;50130;52.150;5.236;2022-12-05T12:57:21;16.5;;;11.2;;
48891;SDS011;50130;52.150;5.236;2022-12-05T12:59:10;18.7;;;12.2;;
48891;SDS011;50130;52.150;5.236;2022-12-05T13:01:04;18.41;;;11.5;;
48891;SDS011;50130;52.150;5.236;2022-12-05T13:04:31;17.5;;;11.4;;
48891;SDS011;50130;52.150;5.236;2022-12-05T13:06:12;12.0;;;8.5;;